Macondo — 3EYB9 — position and weather

sailwx.info

Track history (hours):
 
Tides and Currents Weather Stations Pressure Air Temp Water Temp Dewpoint Dewpoint Depression Visibility Wind Speed Wind Dir Waves Ship Positions

Macondo

Last reported at 2016-Sep-17 13:29 UTC. Time now 2016-Sep-25 12:20 UTC.
Position N 08°13' W 079°27'.

Length 120 m; draft 6.9 m.

Type: Cargo ship. MMSI: 371293000.

Date/timePositionNaut miles runAvg speedWind from/ knotsBaromVisibWave heightAir tempDewpointWater temp
2016-Sep-17 13:29N 08°13' W 079°27'1212.3
2016-Sep-17 12:28N 08°25' W 079°27'3411.3
2016-Sep-17 09:30N 08°58' W 079°35'2 1.9
2016-Sep-17 08:22N 09°00' W 079°36'1 0.6
2016-Sep-17 07:20N 09°01' W 079°36'5 3.0
2016-Sep-17 05:30N 09°04' W 079°40'6 6.5
2016-Sep-17 04:33N 09°07' W 079°46'15 3.8
2016-Sep-17 00:33N 09°19' W 079°55'3 0.4
2016-Sep-16 17:33N 09°22' W 079°56'0 0.1
2016-Sep-16 15:32N 09°22' W 079°56'0 0.0
2016-Sep-16 12:33N 09°22' W 079°56'0 0.0
2016-Sep-16 09:33N 09°22' W 079°56'0 0.0
2016-Sep-16 07:33N 09°22' W 079°56'0 0.0
2016-Sep-16 03:33N 09°22' W 079°56'0 0.0
2016-Sep-16 02:33N 09°22' W 079°56'0 0.0
2016-Sep-16 00:33N 09°22' W 079°56'3 1.4
2016-Sep-15 22:33N 09°25' W 079°56'0 0.0
2016-Sep-15 21:34N 09°25' W 079°56'0 0.0
2016-Sep-15 20:33N 09°25' W 079°56'0 0.0
2016-Sep-15 18:33N 09°25' W 079°56'0 0.0
2016-Sep-15 12:33N 09°25' W 079°56'0 0.0
2016-Sep-15 11:33N 09°25' W 079°56'0 0.0
2016-Sep-15 04:34N 09°25' W 079°56'0 0.0
2016-Sep-15 03:33N 09°25' W 079°56'0 0.0
2016-Sep-15 01:33N 09°25' W 079°56'0 0.0
2016-Sep-14 22:33N 09°25' W 079°56'0 0.0
2016-Sep-14 21:33N 09°25' W 079°56'0 0.0
2016-Sep-14 17:33N 09°25' W 079°56'0 0.0
2016-Sep-14 16:31N 09°25' W 079°56'0 0.0
2016-Sep-14 13:34N 09°25' W 079°56'0 0.0
2016-Sep-14 12:33N 09°25' W 079°56'14 6.9
2016-Sep-14 10:33N 09°37' W 079°51'9 8.7
2016-Sep-14 09:33N 09°44' W 079°45'  
Track history (hours):
 
Tides and Currents Weather Stations Pressure Air Temp Water Temp Dewpoint Dewpoint Depression Visibility Wind Speed Wind Dir Waves Ship Positions

Macondo

Last reported at 2016-Sep-17 13:29 UTC. Time now 2016-Sep-25 12:20 UTC.
Position N 08°13' W 079°27'.

Length 120 m; draft 6.9 m.

Type: Cargo ship. MMSI: 371293000.

Date/timePositionNaut miles runAvg speedWind from/ knotsBaromVisibWave heightAir tempDewpointWater temp
2016-Sep-17 13:29N 08°13' W 079°27'1212.3
2016-Sep-17 12:28N 08°25' W 079°27'3411.3
2016-Sep-17 09:30N 08°58' W 079°35'2 1.9
2016-Sep-17 08:22N 09°00' W 079°36'1 0.6
2016-Sep-17 07:20N 09°01' W 079°36'5 3.0
2016-Sep-17 05:30N 09°04' W 079°40'6 6.5
2016-Sep-17 04:33N 09°07' W 079°46'15 3.8
2016-Sep-17 00:33N 09°19' W 079°55'3 0.4
2016-Sep-16 17:33N 09°22' W 079°56'0 0.1
2016-Sep-16 15:32N 09°22' W 079°56'0 0.0
2016-Sep-16 12:33N 09°22' W 079°56'0 0.0
2016-Sep-16 09:33N 09°22' W 079°56'0 0.0
2016-Sep-16 07:33N 09°22' W 079°56'0 0.0
2016-Sep-16 03:33N 09°22' W 079°56'0 0.0
2016-Sep-16 02:33N 09°22' W 079°56'0 0.0
2016-Sep-16 00:33N 09°22' W 079°56'3 1.4
2016-Sep-15 22:33N 09°25' W 079°56'0 0.0
2016-Sep-15 21:34N 09°25' W 079°56'0 0.0
2016-Sep-15 20:33N 09°25' W 079°56'0 0.0
2016-Sep-15 18:33N 09°25' W 079°56'0 0.0
2016-Sep-15 12:33N 09°25' W 079°56'0 0.0
2016-Sep-15 11:33N 09°25' W 079°56'0 0.0
2016-Sep-15 04:34N 09°25' W 079°56'0 0.0
2016-Sep-15 03:33N 09°25' W 079°56'0 0.0
2016-Sep-15 01:33N 09°25' W 079°56'0 0.0
2016-Sep-14 22:33N 09°25' W 079°56'0 0.0
2016-Sep-14 21:33N 09°25' W 079°56'0 0.0
2016-Sep-14 17:33N 09°25' W 079°56'0 0.0
2016-Sep-14 16:31N 09°25' W 079°56'0 0.0
2016-Sep-14 13:34N 09°25' W 079°56'0 0.0
2016-Sep-14 12:33N 09°25' W 079°56'14 6.9
2016-Sep-14 10:33N 09°37' W 079°51'9 8.7
2016-Sep-14 09:33N 09°44' W 079°45'  

Dump ship's entire track history